Huvudsida
METAR-TAF:

METAR-TAF

Flygplatser :

José Martís internationella flygplats

Havanna, Kuba

latitud: 22-59N, longitud: 082-24W, höjd: 59 m

Aktuellt väderrapport

Denna rapport gjordes för 51 minuter sedan, klockan 08:55 UTC
Vind 2 kt från ost
Temperatur 24°C
Fuktighet 94%
Tryck 1016 hPa
Sikt: 9000 m
Få moln på en höjd av 3000 ft

METAR: MUHA 250855Z 08002KT 9000 FEW030 24/23 Q1016

Tid: 05:46 (09:46 UTC)

Väderprognos

Denna rapport gjordes för 4 timmar och 46 minuter sedan, klockan 05:00 UTC
Prognos gäller från 25 kl. 06 UTC till 26 kl. 06 UTC
Vind 3 kt varierande vindriktning
Sikt: 9000 m
Få moln på en höjd av 3000 ft
Blir
från 25 kl. 14 UTC till 25 kl. 16 UTC
Vind 10 kt från ost
Temporärt
från 25 kl. 19 UTC till 25 kl. 23 UTC
Vind 10 kt varierande vindriktning
Sikt: 4000 m
Få moln på en höjd av 1800 ft, Cumulonimbus.
Brutna moln på en höjd av 3000 ft
åska, regn

TAF: MUHA 250500Z 2506/2606 VRB03KT 9000 FEW030 BECMG 2514/2516 10010KT TEMPO 2519/2523 VRB10KT 4000 TSRA FEW018CB BKN030

Aktuella väderrapporter och prognoser från 4000 flygplatser (METAR- och TAF-rapporter).

De tillgängliga stationerna syns som gula och röda prickar på kartan.

För musen över prickarna för att se namnen på stationerna.

Klicka sedan för att få väderrapporter och prognoser.

För att ändra kartan: Klicka på de gröna knapparna med ett svart kors på för att zooma in; den gröna knappen med ett streck på för att zooma ut; eller på de gröna pilarna för angränsande kartor.


METAR-TAF: